Latest Coastal Weather Observations for Maatsuyker Island

IDT60701

Issued at 10:05 pm EST Tuesday 2 September 2014 (issued every 10 minutes, with the page automatically refreshed every 10 minutes)

About coastal observations | Map of coastal stations | Coastal observations for TAS | Marine services | Other Formats
Station Details ID: 094041 Name: MAATSUYKER ISLAND LIGHTHOUSE Lat: -43.66 Lon: 146.27 Height: 146.5 m
Data from the previous 72 hours. | See also: Recent months at Maatsuyker Island
Date/Time
EST
Temp

°C
Wind Pressure Rain
since 9am
mm
Weather Cloud Vis
km
Sea
Height
m
Swell
Dir
 
Speed
knots
Gust
knots
hPa Trend Height
m
Period
s
Dir
02/10:00pm 8.2 NW 15 17 1021.0 - 1.8 - - - - - - -
02/09:30pm 8.7 NW 15 22 1021.3 - 1.8 - - - - - - -
02/09:00pm 8.1 WNW 10 12 1021.2 - 1.8 - - - - - - -
02/08:30pm 8.5 WNW 13 17 1021.0 - 1.8 - - - - - - -
02/08:00pm 8.6 WNW 13 15 1021.0 - 1.8 - - - - - - -
02/07:30pm 8.5 W 13 17 1020.8 - 1.8 - - - - - - -
02/07:00pm 8.3 W 11 15 1020.6 - 1.8 - - - - - - -
02/06:30pm 8.1 W 13 16 1020.4 - 1.8 - - - - - - -
02/06:00pm 7.9 W 12 15 1020.2 - 1.8 - - - - - - -
02/05:30pm 8.1 W 13 17 1019.9 - 1.8 - - - - - - -
02/05:00pm 8.5 W 12 18 1019.6 - 1.8 - - - - - - -
02/04:30pm 8.8 W 14 18 1019.4 - 1.8 - - - - - - -
02/04:00pm 8.7 W 11 17 1019.2 - 1.8 - - - - - - -
02/03:30pm 8.6 W 13 19 1019.1 - 1.8 - - - - - - -
02/03:00pm 8.2 SW 12 18 1019.0 R 1.8 Haze Mostly cloudy 25 1 3.0 12 SW
02/02:30pm 8.8 W 13 19 1018.8 - 1.8 - - - - - - -
02/02:00pm 8.2 WSW 17 22 1018.5 - 1.8 - - - - - - -
02/01:30pm 8.2 W 14 21 1018.4 - 1.8 - - - - - - -
02/01:00pm 7.9 W 13 20 1018.4 - 1.8 - - - - - - -
02/12:30pm 7.0 W 11 20 1018.7 - 1.6 - - - - - - -
02/12:00pm 7.1 W 8 12 1018.9 - 1.0 - - - - - - -
02/11:30am 8.7 WNW 11 14 1018.6 - 0.4 - - - - - - -
02/11:00am 7.9 WNW 11 13 1018.6 - 0.4 - - - - - - -
02/10:30am 6.6 W 18 27 1018.8 - 0.0 - - - - - - -
02/10:00am 8.1 W 16 22 1018.4 - 0.0 - - - - - - -
02/09:30am 8.8 WNW 19 24 1017.8 - 0.0 - - - - - - -
02/09:00am 8.6 WSW 10 22 1017.9 R 8.6 Distant precip. Mostly cloudy 25 <0.5 2.0 11 SW
02/08:30am 8.1 WNW 16 19 1017.6 - 8.6 - - - - - - -
02/08:00am 8.0 WNW 16 20 1017.4 - 8.6 - - - - - - -
02/07:30am 8.0 W 10 16 1017.1 - 8.6 - - - - - - -
02/07:00am 7.8 W 11 16 1016.7 - 8.6 - - - - - - -
02/06:30am 7.8 W 10 14 1016.4 - 8.6 - - - - - - -
02/06:00am 7.7 SW 10 15 1016.2 R 8.6 Fine Partly cloudy 25 <0.5 2.0 12 SW
02/05:30am 7.7 WSW 12 15 1015.5 - 8.6 - - - - - - -
02/05:00am 8.0 SW 12 18 1015.1 - 8.6 - - - - - - -
02/04:30am 7.8 S 9 12 1014.8 - 8.6 - - - - - - -
02/04:00am 7.6 S 8 13 1014.6 - 8.6 - - - - - - -
02/03:30am 7.4 S 13 17 1014.5 - 8.6 - - - - - - -
02/03:00am 7.5 S 16 20 1014.4 - 8.6 - - - - - - -
02/02:30am 7.4 S 16 20 1014.1 - 8.6 - - - - - - -
02/02:00am 7.3 SSE 17 23 1014.1 - 8.6 - - - - - - -
02/01:30am 7.7 S 17 21 1013.7 - 8.6 - - - - - - -
02/01:00am 7.2 S 20 25 1013.5 - 8.6 - - - - - - -
02/12:30am 7.4 S 20 24 1013.1 - 8.6 - - - - - - -
02/12:00am 7.5 S 20 24 1012.9 - 8.6 - - - - - - -
 
Date/Time
EST
Temp

°C
Wind Pressure Rain
since 9am
mm
Weather Cloud Vis
km
Sea
Height
m
Swell
Dir
 
Speed
knots
Gust
knots
hPa Trend Height
m
Period
s
Dir
01/11:30pm 7.6 S 23 26 1012.3 - 8.6 - - - - - - -
01/11:00pm 7.7 S 22 25 1011.9 - 8.6 - - - - - - -
01/10:30pm 7.6 S 23 27 1011.8 - 8.6 - - - - - - -
01/10:00pm 7.9 S 25 28 1011.5 - 8.6 - - - - - - -
01/09:30pm 8.0 S 25 29 1011.0 - 8.6 - - - - - - -
01/09:00pm 7.8 S 26 29 1010.5 - 8.6 - - - - - - -
01/08:30pm 8.0 S 28 32 1009.7 - 8.6 - - - - - - -
01/08:00pm 8.0 S 25 28 1009.5 - 8.6 - - - - - - -
01/07:59pm 8.0 S 25 28 1009.5 - 8.6 - - - - - - -
01/07:54pm 7.9 ESE 15 25 1009.6 - 8.6 - - - - - - -
01/07:47pm 8.0 SE 19 24 1009.5 - 8.6 - - - - - - -
01/07:30pm 7.3 S 24 41 1009.4 - 8.0 - - - - - - -
01/07:27pm 8.8 S 23 41 1008.7 - 7.0 - - - - - - -
01/07:00pm 8.1 S 26 30 1008.4 - 7.0 - - - - - - -
01/06:30pm 8.6 SSE 21 25 1008.0 - 7.0 - - - - - - -
01/06:20pm 8.6 SSE 21 25 1007.8 - 7.0 - - - - - - -
01/06:12pm 8.5 ESE 10 25 1007.6 - 7.0 - - - - - - -
01/06:00pm 8.6 SSE 22 26 1007.4 - 7.0 - - - - - - -
01/05:57pm 8.5 SSE 24 27 1007.3 - 7.0 - - - - - - -
01/05:30pm 8.7 SE 17 27 1006.9 - 7.0 - - - - - - -
01/05:03pm 8.8 SE 17 27 1006.4 - 7.0 - - - - - - -
01/05:00pm 8.9 SSE 18 27 1006.2 - 7.0 - - - - - - -
01/04:30pm 9.0 SSE 22 27 1005.7 - 7.0 - - - - - - -
01/04:00pm 9.0 SE 17 25 1005.4 - 7.0 - - - - - - -
01/03:54pm 8.9 SE 16 24 1005.4 - 7.0 - - - - - - -
01/03:50pm 9.0 S 21 24 1005.3 - 7.0 - - - - - - -
01/03:30pm 8.9 SE 14 23 1005.2 - 7.0 - - - - - - -
01/03:21pm 9.0 SSE 20 23 1004.9 - 7.0 - - - - - - -
01/03:00pm 8.9 SE 14 20 1005.0 R 7.0 Distant precip. Cloudy 16 1 1.5 12 SW
01/02:30pm 8.5 ESE 9 16 1004.6 - 7.0 - - - - - - -
01/02:00pm 8.6 ESE 11 17 1004.2 - 7.0 - - - - - - -
01/01:30pm 8.3 SE 18 31 1003.8 - 7.0 - - - - - - -
01/01:28pm 8.3 ESE 17 31 1003.7 - 7.0 - - - - - - -
01/01:27pm 8.3 ESE 13 31 1003.7 - 7.0 - - - - - - -
01/01:00pm 7.9 SSE 30 34 1003.6 - 7.0 - - - - - - -
01/12:30pm 7.8 S 33 38 1003.6 - 6.8 - - - - - - -
01/12:15pm 7.8 S 32 38 1003.6 - 6.6 - - - - - - -
01/12:06pm 8.1 SSE 26 37 1003.5 - 6.4 - - - - - - -
01/12:00pm 8.1 SE 23 31 1003.6 - 6.4 - - - - - - -
01/11:58am 8.1 SE 23 32 1003.5 - 6.4 - - - - - - -
01/11:39am 8.2 S 28 39 1002.9 - 5.8 - - - - - - -
01/11:30am 8.1 S 28 31 1003.5 - 5.6 - - - - - - -
01/11:00am 8.0 S 31 35 1003.0 - 5.0 - - - - - - -
01/10:30am 8.6 SSE 29 32 1002.7 - 4.4 - - - - - - -
01/10:00am 8.4 SSE 27 34 1002.3 - 3.6 - - - - - - -
01/09:31am 8.5 SSE 23 33 1002.5 - 2.0 - - - - - - -
01/09:30am 8.5 SSE 23 30 1002.5 - 2.0 - - - - - - -
01/09:14am 8.7 SSE 23 28 1002.5 - 0.8 - - - - - - -
01/09:06am 8.8 SE 17 27 1002.5 - 0.4 - - - - - - -
01/09:00am 9.0 SSE 16 28 1002.6 F 7.2 Showers Cloudy 3 1 2.0 12 SW
01/08:45am 8.9 SSE 20 27 1003.0 - 5.8 - - - - - - -
01/08:38am 9.2 ESE 15 25 1002.7 - 5.4 - - - - - - -
01/08:35am 9.3 E 10 25 1002.8 - 5.2 - - - - - - -
01/08:33am 9.3 SE 20 25 1002.8 - 5.2 - - - - - - -
01/08:30am 9.5 ENE 9 25 1003.0 - 4.8 - - - - - - -
01/08:00am 9.6 S 19 21 1002.9 - 4.0 - - - - - - -
01/07:30am 10.2 S 10 11 1003.1 - 3.6 - - - - - - -
01/07:00am 10.1 W 9 11 1003.4 - 3.0 - - - - - - -
01/06:30am 10.0 NW 19 23 1002.8 - 2.6 - - - - - - -
01/06:00am 10.2 NW 15 27 1002.7 R 1.6 Showers Cloudy 2 1 2.0 12 SW
01/05:50am 10.4 NW 21 31 1002.7 - 1.4 - - - - - - -
01/05:30am 11.1 NNW 31 41 1002.3 - 0.8 - - - - - - -
01/05:09am 11.3 NNW 34 45 1001.0 - 0.4 - - - - - - -
01/05:00am 11.6 NNW 33 41 1001.1 - 0.2 - - - - - - -
01/04:30am 12.5 NNW 34 47 1000.8 - 0.0 - - - - - - -
01/04:00am 14.2 NNW 27 37 1001.6 - 0.0 - - - - - - -
01/03:35am 14.2 NNW 24 34 1001.5 - 0.0 - - - - - - -
01/03:30am 14.1 NNW 24 32 1001.6 - 0.0 - - - - - - -
01/03:00am 13.4 NNW 22 27 1002.0 - 0.0 - - - - - - -
01/02:30am 14.0 NNW 17 24 1002.5 - 0.0 - - - - - - -
01/02:00am 14.7 NNW 18 24 1002.8 - 0.0 - - - - - - -
01/01:30am 15.2 NNW 29 39 1002.9 - 0.0 - - - - - - -
01/01:29am 15.2 NNW 29 39 1003.1 - 0.0 - - - - - - -
01/01:27am 15.4 NNW 30 37 1002.8 - 0.0 - - - - - - -
01/01:05am 15.2 NNW 19 29 1003.3 - 0.0 - - - - - - -
01/01:00am 15.4 N 18 27 1003.4 - 0.0 - - - - - - -
01/12:37am 15.1 NNW 19 29 1003.9 - 0.0 - - - - - - -
01/12:30am 15.4 N 20 29 1003.8 - 0.0 - - - - - - -
01/12:12am 16.0 N 19 30 1003.6 - 0.0 - - - - - - -
01/12:00am 15.9 N 18 27 1004.1 - 0.0 - - - - - - -
 
Date/Time
EST
Temp

°C
Wind Pressure Rain
since 9am
mm
Weather Cloud Vis
km
Sea
Height
m
Swell
Dir
 
Speed
knots
Gust
knots
hPa Trend Height
m
Period
s
Dir
31/11:30pm 15.6 N 15 22 1004.6 - 0.0 - - - - - - -
31/11:00pm 15.5 N 13 19 1005.6 - 0.0 - - - - - - -
31/10:30pm 15.5 N 14 19 1006.1 - 0.0 - - - - - - -
31/10:00pm 15.6 N 13 17 1006.6 - 0.0 - - - - - - -
31/09:30pm 15.0 N 9 11 1007.0 - 0.0 - - - - - - -
31/09:00pm 15.6 NNW 13 17 1007.3 - 0.0 - - - - - - -
31/08:30pm 15.6 N 12 15 1007.4 - 0.0 - - - - - - -
31/08:00pm 15.6 N 10 14 1007.5 - 0.0 - - - - - - -
31/07:30pm 16.0 N 12 16 1007.5 - 0.0 - - - - - - -
31/07:00pm 16.1 N 12 16 1007.8 - 0.0 - - - - - - -
31/06:30pm 16.0 N 10 13 1008.0 - 0.0 - - - - - - -
31/06:00pm 16.2 N 12 16 1008.2 - 0.0 - - - - - - -
31/05:30pm 16.2 N 13 16 1008.1 - 0.0 - - - - - - -
31/05:00pm 16.4 N 14 17 1008.2 - 0.0 - - - - - - -
31/04:30pm 16.9 NNW 14 17 1008.2 - 0.0 - - - - - - -
31/04:00pm 16.6 N 13 19 1008.2 - 0.0 - - - - - - -
31/03:30pm 16.5 N 14 20 1008.6 - 0.0 - - - - - - -
31/03:00pm 16.6 N 8 19 1009.1 F 0.0 Haze Cloudy 16 <0.5 2.5 12 SW
31/02:30pm 16.1 N 17 25 1009.4 - 0.0 - - - - - - -
31/02:00pm 16.1 NNW 17 21 1009.7 - 0.0 - - - - - - -
31/01:30pm 16.3 NNW 16 21 1010.1 - 0.0 - - - - - - -
31/01:00pm 16.0 NNW 15 21 1010.7 - 0.0 - - - - - - -
31/12:30pm 16.0 N 13 18 1011.3 - 0.0 - - - - - - -
31/12:00pm 15.5 NNW 15 20 1012.0 - 0.0 - - - - - - -
31/11:30am 15.0 N 15 20 1012.0 - 0.0 - - - - - - -
31/11:00am 15.1 N 15 20 1012.3 - 0.0 - - - - - - -
31/10:30am 15.0 N 15 20 1012.6 - 0.0 - - - - - - -
31/10:00am 14.5 N 13 18 1013.1 - 0.0 - - - - - - -
31/09:30am 14.2 N 13 18 1013.3 - 0.0 - - - - - - -
31/09:00am 13.8 N 10 19 1013.6 F 0.0 Fine Mostly cloudy 25 <0.5 2.0 12 SW
31/08:30am 13.9 N 17 23 1013.6 - 0.0 - - - - - - -
31/08:00am 13.0 NNW 13 17 1013.9 - 0.0 - - - - - - -
31/07:30am 13.0 N 13 19 1013.9 - 0.0 - - - - - - -
31/07:00am 12.8 N 14 19 1014.0 - 0.0 - - - - - - -
31/06:30am 13.1 N 16 23 1013.8 - 0.0 - - - - - - -
31/06:20am 13.0 N 18 28 1013.9 - 0.0 - - - - - - -
31/06:00am 13.2 N 8 25 1014.1 F 0.0 Fine Partly cloudy 25 <0.5 2.5 13 SW
31/05:50am 12.8 N 16 26 1014.0 - 0.0 - - - - - - -
31/05:30am 12.6 NNW 15 23 1014.1 - 0.0 - - - - - - -
31/05:14am 12.8 NNW 16 26 1013.9 - 0.0 - - - - - - -
31/05:00am 12.5 NNW 14 21 1014.2 - 0.0 - - - - - - -
31/04:30am 11.6 N 12 19 1014.4 - 0.0 - - - - - - -
31/04:00am 10.9 N 8 11 1015.0 - 0.0 - - - - - - -
31/03:30am 11.3 N 12 16 1015.2 - 0.0 - - - - - - -
31/03:00am 10.5 N 12 13 1016.0 - 0.0 - - - - - - -
31/02:30am 10.9 N 13 16 1015.9 - 0.0 - - - - - - -
31/02:00am 10.5 N 12 16 1016.4 - 0.0 - - - - - - -
31/01:30am 10.0 N 9 11 1017.0 - 0.0 - - - - - - -
31/01:00am 9.9 N 9 11 1017.3 - 0.0 - - - - - - -
31/12:30am 10.1 N 10 12 1017.6 - 0.0 - - - - - - -
31/12:00am 9.9 N 9 11 1018.0 - 0.0 - - - - - - -
 
Date/Time
EST
Temp

°C
Wind Pressure Rain
since 9am
mm
Weather Cloud Vis
km
Sea
Height
m
Swell
Dir
 
Speed
knots
Gust
knots
hPa Trend Height
m
Period
s
Dir
30/11:30pm 10.3 N 10 12 1018.0 - 0.0 - - - - - - -
30/11:00pm 9.9 N 9 10 1018.5 - 0.0 - - - - - - -
30/10:30pm 10.2 N 10 11 1018.9 - 0.0 - - - - - - -

Other Formats:

Comma delimited format used in spreadsheet applications
http://www.bom.gov.au/fwo/IDT60701/IDT60701.94962.axf

JavaScript Object Notation format (JSON) in row-major order
http://www.bom.gov.au/fwo/IDT60701/IDT60701.94962.json